Time;durP1;ratioP1;P1;durP2;ratioP2;P2;SDS_P1;SDS_P2;PMS_P1;PMS_P2;Temp;Humidity;BMP_temperature;BMP_pressure;BME280_temperature;BME280_humidity;BME280_pressure;Samples;Min_cycle;Max_cycle;Signal;HPM_P1;HPM_P2
2021/11/15 00:00:01;;;;;;;;;;;;;;;;;;2115625;28;20289;-48
2021/11/15 00:01:02;;;;;;;;;;;;;;;;;;2114973;28;19931;-48
2021/11/15 00:02:02;;;;;;;;;;;;;;;;;;2124260;27;20256;-49
2021/11/15 00:03:03;;;;;;;;;;;;;;;;;;2122596;28;19923;-48
2021/11/15 00:04:04;;;;;;;;;;;;;;;;;;2122167;27;20395;-47
2021/11/15 00:05:05;;;;;;;;;;;;;;;;;;2123214;27;19927;-48
2021/11/15 00:06:06;;;;;;;;;;;;;;;;;;2124139;28;19924;-51
2021/11/15 00:07:07;;;;;;;;;;;;;;;;;;2123050;27;19931;-50
2021/11/15 00:08:08;;;;;;;;;;;;;;;;;;2118478;28;20031;-48
2021/11/15 00:09:09;;;;;;;;;;;;;;;;;;2115474;28;19932;-49
2021/11/15 00:10:10;;;;;;;;;;;;;;;;;;2118693;27;19923;-48
2021/11/15 00:11:11;;;;;;;;;;;;;;;;;;2122608;28;19974;-49
2021/11/15 00:12:12;;;;;;;;;;;;;;;;;;2123879;28;20064;-48
2021/11/15 00:13:13;;;;;;;;;;;;;;;;;;2122888;27;19950;-48
2021/11/15 00:14:14;;;;;;;;;;;;;;;;;;2122783;28;19957;-48
2021/11/15 00:15:15;;;;;;;;;;;;;;;;;;2123949;28;19976;-48
2021/11/15 00:16:16;;;;;;;;;;;;;;;;;;2122060;27;19934;-48
2021/11/15 00:17:16;;;;;;;;;;;;;;;;;;2123385;28;19928;-48
2021/11/15 00:18:17;;;;;;;;;;;;;;;;;;2124066;28;19972;-49
2021/11/15 00:19:18;;;;;;;;;;;;;;;;;;2121688;27;20299;-51
2021/11/15 00:20:19;;;;;;;;;;;;;;;;;;2123865;28;20003;-48
2021/11/15 00:21:20;;;;;;;;;;;;;;;;;;2123823;28;20269;-50
2021/11/15 00:22:20;;;;;;;;;;;;;;;;;;2125054;27;19987;-49
2021/11/15 00:23:21;;;;;;;;;;;;;;;;;;2115427;28;19924;-49
2021/11/15 00:24:22;;;;;;;;;;;;;;;;;;2115384;28;19969;-48
2021/11/15 00:25:23;;;;;;;;;;;;;;;;;;2123418;27;19923;-49
2021/11/15 00:26:24;;;;;;;;;;;;;;;;;;2115370;28;20513;-48
2021/11/15 00:27:24;;;;;;;;;;;;;;;;;;2115417;28;19931;-49
2021/11/15 00:28:25;;;;;;;;;;;;;;;;;;2123255;27;19966;-49
2021/11/15 00:29:26;;;;;;;;;;;;;;;;;;2115352;28;19924;-49
2021/11/15 00:30:27;;;;;;;;;;;;;;;;;;2115191;28;19938;-48
2021/11/15 00:31:28;;;;;;;;;;;;;;;;;;2123676;27;19946;-47
2021/11/15 00:32:29;;;;;;;;;;;;;;;;;;2115308;28;19928;-51
2021/11/15 00:33:30;;;;;;;;;;;;;;;;;;2118520;28;19927;-48
2021/11/15 00:34:30;;;;;;;;;;;;;;;;;;2121680;27;20335;-48
2021/11/15 00:35:31;;;;;;;;;;;;;;;;;;2123805;28;19923;-48
2021/11/15 00:36:32;;;;;;;;;;;;;;;;;;2123249;28;19923;-48
2021/11/15 00:37:33;;;;;;;;;;;;;;;;;;2122461;27;19932;-49
2021/11/15 00:38:33;;;;;;;;;;;;;;;;;;2115269;28;19924;-49
2021/11/15 00:39:34;;;;;;;;;;;;;;;;;;2116033;28;20022;-49
2021/11/15 00:40:35;;;;;;;;;;;;;;;;;;2122677;27;19924;-49
2021/11/15 00:41:36;;;;;;;;;;;;;;;;;;2115248;28;19953;-49
2021/11/15 00:42:37;;;;;;;;;;;;;;;;;;2115889;27;20270;-48
2021/11/15 00:43:38;;;;;;;;;;;;;;;;;;2122912;27;20006;-49
2021/11/15 00:44:39;;;;;;;;;;;;;;;;;;2123731;28;19928;-48
2021/11/15 00:45:40;;;;;;;;;;;;;;;;;;2122454;27;19931;-49
2021/11/15 00:46:41;;;;;;;;;;;;;;;;;;2122419;27;19931;-48
2021/11/15 00:47:41;;;;;;;;;;;;;;;;;;2123746;28;20368;-48
2021/11/15 00:48:42;;;;;;;;;;;;;;;;;;2121611;28;19961;-49
2021/11/15 00:49:43;;;;;;;;;;;;;;;;;;2130184;27;20364;-47
2021/11/15 00:50:45;;;;;;;;;;;;;;;;;;2132223;27;19923;-48
2021/11/15 00:51:45;;;;;;;;;;;;;;;;;;2127680;27;20399;-48
2021/11/15 00:52:46;;;;;;;;;;;;;;;;;;2118274;27;20288;-51
2021/11/15 00:53:47;;;;;;;;;;;;;;;;;;2115199;28;19923;-48
2021/11/15 00:54:49;;;;;;;;;;;;;;;;;;2117606;27;19923;-49
2021/11/15 00:55:49;;;;;;;;;;;;;;;;;;2123021;28;20372;-48
2021/11/15 00:56:50;;;;;;;;;;;;;;;;;;2123500;28;19924;-48
2021/11/15 00:57:51;;;;;;;;;;;;;;;;;;2123216;27;19923;-48
2021/11/15 00:58:52;;;;;;;;;;;;;;;;;;2115872;28;19928;-49
2021/11/15 00:59:53;;;;;;;;;;;;;;;;;;2115070;28;19924;-48
2021/11/15 01:00:53;;;;;;;;;;;;;;;;;;2119707;27;20413;-48
2021/11/15 01:01:55;;;;;;;;;;;;;;;;;;2123325;28;20269;-47
2021/11/15 01:02:56;;;;;;;;;;;;;;;;;;2122182;28;19944;-48
2021/11/15 01:03:57;;;;;;;;;;;;;;;;;;2122247;27;19976;-49
2021/11/15 01:04:57;;;;;;;;;;;;;;;;;;2123720;28;19923;-48
2021/11/15 01:05:59;;;;;;;;;;;;;;;;;;2123655;28;20292;-48
2021/11/15 01:07:00;;;;;;;;;;;;;;;;;;2122338;27;20040;-51
2021/11/15 01:08:01;;;;;;;;;;;;;;;;;;2123621;28;19994;-48
2021/11/15 01:09:02;;;;;;;;;;;;;;;;;;2123115;28;19924;-49
2021/11/15 01:10:03;;;;;;;;;;;;;;;;;;2121946;27;19943;-50
2021/11/15 01:11:03;;;;;;;;;;;;;;;;;;2114979;28;20291;-48
2021/11/15 01:12:04;;;;;;;;;;;;;;;;;;2115455;28;19965;-48
2021/11/15 01:13:05;;;;;;;;;;;;;;;;;;2121460;27;19942;-47
2021/11/15 01:14:06;;;;;;;;;;;;;;;;;;2123624;28;19923;-49
2021/11/15 01:15:07;;;;;;;;;;;;;;;;;;2121452;28;20396;-48
2021/11/15 01:16:08;;;;;;;;;;;;;;;;;;2122215;27;20495;-52
2021/11/15 01:17:09;;;;;;;;;;;;;;;;;;2114987;28;19931;-47
2021/11/15 01:18:09;;;;;;;;;;;;;;;;;;2115974;28;19924;-49
2021/11/15 01:19:11;;;;;;;;;;;;;;;;;;2122352;27;19924;-48
2021/11/15 01:20:11;;;;;;;;;;;;;;;;;;2114978;28;20257;-49
2021/11/15 01:21:12;;;;;;;;;;;;;;;;;;2116184;27;19957;-51
2021/11/15 01:22:13;;;;;;;;;;;;;;;;;;2122570;27;19924;-49
2021/11/15 01:23:14;;;;;;;;;;;;;;;;;;2123535;28;20023;-49
2021/11/15 01:24:15;;;;;;;;;;;;;;;;;;2122414;27;19923;-48
2021/11/15 01:25:16;;;;;;;;;;;;;;;;;;2120491;27;20269;-49
2021/11/15 01:26:17;;;;;;;;;;;;;;;;;;2114957;28;19967;-48
2021/11/15 01:27:18;;;;;;;;;;;;;;;;;;2118406;27;20024;-50
2021/11/15 01:28:19;;;;;;;;;;;;;;;;;;2123021;28;19988;-49
2021/11/15 01:29:20;;;;;;;;;;;;;;;;;;2123083;28;19930;-49
2021/11/15 01:30:21;;;;;;;;;;;;;;;;;;2121308;28;19928;-49
2021/11/15 01:31:22;;;;;;;;;;;;;;;;;;2130750;27;19924;-48
2021/11/15 01:32:22;;;;;;;;;;;;;;;;;;2132107;27;19923;-48
2021/11/15 01:33:23;;;;;;;;;;;;;;;;;;2124656;27;20271;-48
2021/11/15 01:34:24;;;;;;;;;;;;;;;;;;2122961;28;19923;-49
2021/11/15 01:35:25;;;;;;;;;;;;;;;;;;2123553;28;19923;-48
2021/11/15 01:36:26;;;;;;;;;;;;;;;;;;2120966;28;19924;-50
2021/11/15 01:37:26;;;;;;;;;;;;;;;;;;2115579;28;19923;-49
2021/11/15 01:38:27;;;;;;;;;;;;;;;;;;2115056;28;20334;-49
2021/11/15 01:39:28;;;;;;;;;;;;;;;;;;2122738;27;20004;-49
2021/11/15 01:40:29;;;;;;;;;;;;;;;;;;2114927;28;19928;-48
2021/11/15 01:41:30;;;;;;;;;;;;;;;;;;2114814;28;19928;-48
2021/11/15 01:42:30;;;;;;;;;;;;;;;;;;2121134;27;19923;-49
2021/11/15 01:43:31;;;;;;;;;;;;;;;;;;2131947;27;19930;-49
2021/11/15 01:44:32;;;;;;;;;;;;;;;;;;2131946;27;19927;-47
2021/11/15 01:45:33;;;;;;;;;;;;;;;;;;2121458;27;19924;-47
2021/11/15 01:46:34;;;;;;;;;;;;;;;;;;2123249;28;19923;-48
2021/11/15 01:47:35;;;;;;;;;;;;;;;;;;2122820;28;19923;-48
2021/11/15 01:48:35;;;;;;;;;;;;;;;;;;2122546;27;19937;-49
2021/11/15 01:49:36;;;;;;;;;;;;;;;;;;2123415;28;20383;-47
2021/11/15 01:50:37;;;;;;;;;;;;;;;;;;2122960;28;19991;-48
2021/11/15 01:51:38;;;;;;;;;;;;;;;;;;2124679;27;19946;-48
2021/11/15 01:52:39;;;;;;;;;;;;;;;;;;2131915;27;19931;-49
2021/11/15 01:53:40;;;;;;;;;;;;;;;;;;2130148;27;20291;-47
2021/11/15 01:54:40;;;;;;;;;;;;;;;;;;2121538;27;20475;-49
2021/11/15 01:55:41;;;;;;;;;;;;;;;;;;2123331;28;19931;-47
2021/11/15 01:56:42;;;;;;;;;;;;;;;;;;2121921;27;19929;-49
2021/11/15 01:57:43;;;;;;;;;;;;;;;;;;2121424;27;19924;-49
2021/11/15 01:58:43;;;;;;;;;;;;;;;;;;2114643;28;19924;-48
2021/11/15 01:59:44;;;;;;;;;;;;;;;;;;2115719;28;19924;-48
2021/11/15 02:00:45;;;;;;;;;;;;;;;;;;2117835;28;19930;-48
2021/11/15 02:01:46;;;;;;;;;;;;;;;;;;2114977;28;20304;-49
2021/11/15 02:02:47;;;;;;;;;;;;;;;;;;2114944;27;20014;-48
2021/11/15 02:03:48;;;;;;;;;;;;;;;;;;2121255;28;19931;-47
2021/11/15 02:04:49;;;;;;;;;;;;;;;;;;2123190;28;20154;-48
2021/11/15 02:05:50;;;;;;;;;;;;;;;;;;2122423;27;19927;-48
2021/11/15 02:06:50;;;;;;;;;;;;;;;;;;2121708;28;20277;-50
2021/11/15 02:07:51;;;;;;;;;;;;;;;;;;2123313;28;19927;-49
2021/11/15 02:08:52;;;;;;;;;;;;;;;;;;2123131;27;19923;-48
2021/11/15 02:09:53;;;;;;;;;;;;;;;;;;2118233;27;19931;-48
2021/11/15 02:10:54;;;;;;;;;;;;;;;;;;2114624;28;19924;-48
2021/11/15 02:11:55;;;;;;;;;;;;;;;;;;2117570;28;19924;-48
2021/11/15 02:12:55;;;;;;;;;;;;;;;;;;2130946;27;19945;-47
2021/11/15 02:13:56;;;;;;;;;;;;;;;;;;2131689;27;19976;-48
2021/11/15 02:14:57;;;;;;;;;;;;;;;;;;2124046;27;19924;-49
2021/11/15 02:15:58;;;;;;;;;;;;;;;;;;2122796;28;20277;-49
2021/11/15 02:16:59;;;;;;;;;;;;;;;;;;2123025;28;19965;-48
2021/11/15 02:17:59;;;;;;;;;;;;;;;;;;2120918;27;19944;-48
2021/11/15 02:19:00;;;;;;;;;;;;;;;;;;2123111;28;20017;-50
2021/11/15 02:20:01;;;;;;;;;;;;;;;;;;2123211;28;20326;-50
2021/11/15 02:21:02;;;;;;;;;;;;;;;;;;2121074;27;19980;-48
2021/11/15 02:22:03;;;;;;;;;;;;;;;;;;2123116;28;19923;-49
2021/11/15 02:23:04;;;;;;;;;;;;;;;;;;2123119;28;19968;-47
2021/11/15 02:24:05;;;;;;;;;;;;;;;;;;2123628;27;19938;-48
2021/11/15 02:25:06;;;;;;;;;;;;;;;;;;2114642;28;20010;-51
2021/11/15 02:26:07;;;;;;;;;;;;;;;;;;2119184;28;20026;-49
2021/11/15 02:27:08;;;;;;;;;;;;;;;;;;2123051;27;19930;-49
2021/11/15 02:28:09;;;;;;;;;;;;;;;;;;2131649;27;19931;-49
2021/11/15 02:29:09;;;;;;;;;;;;;;;;;;2130660;27;19941;-49
2021/11/15 02:30:10;;;;;;;;;;;;;;;;;;2122241;27;19927;-49
2021/11/15 02:31:11;;;;;;;;;;;;;;;;;;2123089;28;20423;-50
2021/11/15 02:32:12;;;;;;;;;;;;;;;;;;2122583;28;19924;-48
2021/11/15 02:33:13;;;;;;;;;;;;;;;;;;2120987;27;19961;-48
2021/11/15 02:34:14;;;;;;;;;;;;;;;;;;2123110;28;19946;-49
2021/11/15 02:35:15;;;;;;;;;;;;;;;;;;2122191;28;19977;-49
2021/11/15 02:36:16;;;;;;;;;;;;;;;;;;2121491;27;19931;-48
2021/11/15 02:37:17;;;;;;;;;;;;;;;;;;2123124;28;20174;-48
2021/11/15 02:38:18;;;;;;;;;;;;;;;;;;2121429;28;19923;-48
2021/11/15 02:39:19;;;;;;;;;;;;;;;;;;2125542;27;20261;-50
2021/11/15 02:40:21;;;;;;;;;;;;;;;;;;2131628;27;19934;-48
2021/11/15 02:41:22;;;;;;;;;;;;;;;;;;2127032;27;19928;-49
2021/11/15 02:42:23;;;;;;;;;;;;;;;;;;2121595;27;20354;-48
2021/11/15 02:43:24;;;;;;;;;;;;;;;;;;2123036;28;19942;-50
2021/11/15 02:44:24;;;;;;;;;;;;;;;;;;2119586;28;19977;-53
2021/11/15 02:45:25;;;;;;;;;;;;;;;;;;2129276;27;19961;-48
2021/11/15 02:46:27;;;;;;;;;;;;;;;;;;2131669;27;19935;-49
2021/11/15 02:47:28;;;;;;;;;;;;;;;;;;2124392;27;19931;-51
2021/11/15 02:48:30;;;;;;;;;;;;;;;;;;2121712;28;19973;-49
2021/11/15 02:49:31;;;;;;;;;;;;;;;;;;2123010;28;20006;-49
2021/11/15 02:50:31;;;;;;;;;;;;;;;;;;2120773;28;19932;-48
2021/11/15 02:51:32;;;;;;;;;;;;;;;;;;2115778;28;19931;-48
2021/11/15 02:52:33;;;;;;;;;;;;;;;;;;2114417;28;19931;-48
2021/11/15 02:53:34;;;;;;;;;;;;;;;;;;2118211;27;19923;-49
2021/11/15 02:54:35;;;;;;;;;;;;;;;;;;2122786;28;20314;-48
2021/11/15 02:55:36;;;;;;;;;;;;;;;;;;2123053;28;19984;-48
2021/11/15 02:56:37;;;;;;;;;;;;;;;;;;2121620;27;19923;-49
2021/11/15 02:57:38;;;;;;;;;;;;;;;;;;2122845;28;20013;-51
2021/11/15 02:58:39;;;;;;;;;;;;;;;;;;2122875;28;19923;-49
2021/11/15 02:59:40;;;;;;;;;;;;;;;;;;2122268;27;19949;-48
2021/11/15 03:00:40;;;;;;;;;;;;;;;;;;2131713;27;20283;-48
2021/11/15 03:01:41;;;;;;;;;;;;;;;;;;2131485;27;20319;-48
2021/11/15 03:02:42;;;;;;;;;;;;;;;;;;2121899;27;19924;-52
2021/11/15 03:03:43;;;;;;;;;;;;;;;;;;2121359;28;19924;-49
2021/11/15 03:04:44;;;;;;;;;;;;;;;;;;2122566;28;19923;-49
2021/11/15 03:05:45;;;;;;;;;;;;;;;;;;2122512;27;20039;-49
2021/11/15 03:06:46;;;;;;;;;;;;;;;;;;2114440;28;19924;-49
2021/11/15 03:07:47;;;;;;;;;;;;;;;;;;2114826;28;19924;-48
2021/11/15 03:08:47;;;;;;;;;;;;;;;;;;2122033;27;19942;-48
2021/11/15 03:09:48;;;;;;;;;;;;;;;;;;2115664;28;19961;-48
2021/11/15 03:10:50;;;;;;;;;;;;;;;;;;2116763;28;19927;-49
2021/11/15 03:11:51;;;;;;;;;;;;;;;;;;2123850;27;19938;-49
2021/11/15 03:12:51;;;;;;;;;;;;;;;;;;2124337;28;20029;-48
2021/11/15 03:13:52;;;;;;;;;;;;;;;;;;2123029;28;19959;-48
2021/11/15 03:14:53;;;;;;;;;;;;;;;;;;2119621;28;19924;-48
2021/11/15 03:15:54;;;;;;;;;;;;;;;;;;2115768;28;19928;-52
2021/11/15 03:16:55;;;;;;;;;;;;;;;;;;2116830;27;19935;-49
2021/11/15 03:17:56;;;;;;;;;;;;;;;;;;2122631;27;19974;-49
2021/11/15 03:18:56;;;;;;;;;;;;;;;;;;2115847;28;20331;-48
2021/11/15 03:19:57;;;;;;;;;;;;;;;;;;2118293;27;20356;-49
2021/11/15 03:20:58;;;;;;;;;;;;;;;;;;2122835;27;19935;-49
2021/11/15 03:21:59;;;;;;;;;;;;;;;;;;2123955;28;19965;-48
2021/11/15 03:23:00;;;;;;;;;;;;;;;;;;2123289;27;19941;-49
2021/11/15 03:24:00;;;;;;;;;;;;;;;;;;2122684;28;19924;-48
2021/11/15 03:25:01;;;;;;;;;;;;;;;;;;2124255;28;20379;-50
2021/11/15 03:26:02;;;;;;;;;;;;;;;;;;2124267;27;19967;-52
2021/11/15 03:27:03;;;;;;;;;;;;;;;;;;2116646;28;19924;-48
2021/11/15 03:28:04;;;;;;;;;;;;;;;;;;2115719;28;19965;-50
2021/11/15 03:29:04;;;;;;;;;;;;;;;;;;2119651;27;19931;-48
2021/11/15 03:30:05;;;;;;;;;;;;;;;;;;2123448;28;19931;-52
2021/11/15 03:31:06;;;;;;;;;;;;;;;;;;2124385;28;19923;-48
2021/11/15 03:32:07;;;;;;;;;;;;;;;;;;2123089;27;19931;-48
2021/11/15 03:33:08;;;;;;;;;;;;;;;;;;2124081;28;20021;-48
2021/11/15 03:34:08;;;;;;;;;;;;;;;;;;2124241;28;19927;-49
2021/11/15 03:35:10;;;;;;;;;;;;;;;;;;2122493;27;19931;-49
2021/11/15 03:36:11;;;;;;;;;;;;;;;;;;2132672;27;20015;-49
2021/11/15 03:37:12;;;;;;;;;;;;;;;;;;2132572;27;19985;-49
2021/11/15 03:38:12;;;;;;;;;;;;;;;;;;2122795;27;19923;-49
2021/11/15 03:39:13;;;;;;;;;;;;;;;;;;2115673;28;20331;-49
2021/11/15 03:40:15;;;;;;;;;;;;;;;;;;2115737;28;19928;-48
2021/11/15 03:41:16;;;;;;;;;;;;;;;;;;2121255;27;20034;-48
2021/11/15 03:42:16;;;;;;;;;;;;;;;;;;2124236;28;19923;-48
2021/11/15 03:43:17;;;;;;;;;;;;;;;;;;2123654;28;20318;-51
2021/11/15 03:44:20;;;;;;;;;;;;;;;;;;2125838;27;19923;-50
2021/11/15 03:45:20;;;;;;;;;;;;;;;;;;2132840;27;20041;-49
2021/11/15 03:46:21;;;;;;;;;;;;;;;;;;2131192;27;20372;-48
2021/11/15 03:47:22;;;;;;;;;;;;;;;;;;2122054;27;20337;-48
2021/11/15 03:48:23;;;;;;;;;;;;;;;;;;2124078;28;19970;-51
2021/11/15 03:49:24;;;;;;;;;;;;;;;;;;2123353;28;20093;-50
2021/11/15 03:50:25;;;;;;;;;;;;;;;;;;2119464;28;20360;-49
2021/11/15 03:51:26;;;;;;;;;;;;;;;;;;2115727;28;19924;-50
2021/11/15 03:52:27;;;;;;;;;;;;;;;;;;2116409;28;19962;-50
2021/11/15 03:53:28;;;;;;;;;;;;;;;;;;2122668;27;19924;-50
2021/11/15 03:54:28;;;;;;;;;;;;;;;;;;2115568;28;19924;-50
2021/11/15 03:55:29;;;;;;;;;;;;;;;;;;2116747;27;19946;-49
2021/11/15 03:56:30;;;;;;;;;;;;;;;;;;2123074;27;19923;-48
2021/11/15 03:57:31;;;;;;;;;;;;;;;;;;2123922;28;19931;-49
2021/11/15 03:58:32;;;;;;;;;;;;;;;;;;2122122;28;19923;-50
2021/11/15 03:59:33;;;;;;;;;;;;;;;;;;2128739;27;19938;-49
2021/11/15 04:00:33;;;;;;;;;;;;;;;;;;2132747;27;19927;-48
2021/11/15 04:01:35;;;;;;;;;;;;;;;;;;2127418;27;19923;-49
2021/11/15 04:02:35;;;;;;;;;;;;;;;;;;2122669;28;19923;-50
2021/11/15 04:03:38;;;;;;;;;;;;;;;;;;2122649;28;19927;-49
2021/11/15 04:04:50;;;;;;;;;;;;;;;;;;2121841;28;20337;-48
2021/11/15 04:05:56;;;;;;;;;;;;;;;;;;2123607;28;20014;-49
2021/11/15 04:06:57;;;;;;;;;;;;;;;;;;2123929;28;20395;-49
2021/11/15 04:07:58;;;;;;;;;;;;;;;;;;2121734;27;19924;-49
2021/11/15 04:08:59;;;;;;;;;;;;;;;;;;2123971;28;19928;-49
2021/11/15 04:10:00;;;;;;;;;;;;;;;;;;2123578;28;20340;-50
2021/11/15 04:11:01;;;;;;;;;;;;;;;;;;2121834;27;19923;-49
2021/11/15 04:12:03;;;;;;;;;;;;;;;;;;2123978;28;19924;-49
2021/11/15 04:13:04;;;;;;;;;;;;;;;;;;2123586;28;19997;-48
2021/11/15 04:14:05;;;;;;;;;;;;;;;;;;2122684;27;19973;-49
2021/11/15 04:15:06;;;;;;;;;;;;;;;;;;2115329;28;19927;-50
2021/11/15 04:16:06;;;;;;;;;;;;;;;;;;2116234;28;20424;-48
2021/11/15 04:17:07;;;;;;;;;;;;;;;;;;2122361;27;20372;-49
2021/11/15 04:18:08;;;;;;;;;;;;;;;;;;2115961;28;19928;-51
2021/11/15 04:19:11;;;;;;;;;;;;;;;;;;2121197;28;19934;-49
2021/11/15 04:20:12;;;;;;;;;;;;;;;;;;2117824;27;20022;-49
2021/11/15 04:21:13;;;;;;;;;;;;;;;;;;2115568;28;19965;-49
2021/11/15 04:22:13;;;;;;;;;;;;;;;;;;2117088;27;19995;-52
2021/11/15 04:23:14;;;;;;;;;;;;;;;;;;2121511;27;20289;-52
2021/11/15 04:24:15;;;;;;;;;;;;;;;;;;2115394;28;19924;-48
2021/11/15 04:25:16;;;;;;;;;;;;;;;;;;2118414;27;20284;-49
2021/11/15 04:26:16;;;;;;;;;;;;;;;;;;2125598;27;19976;-50
2021/11/15 04:27:17;;;;;;;;;;;;;;;;;;2123831;28;19923;-50
2021/11/15 04:28:18;;;;;;;;;;;;;;;;;;2122864;27;19924;-49
2021/11/15 04:29:19;;;;;;;;;;;;;;;;;;2122374;28;19923;-48
2021/11/15 04:30:20;;;;;;;;;;;;;;;;;;2124005;28;19927;-49
2021/11/15 04:31:21;;;;;;;;;;;;;;;;;;2124070;27;19935;-49
2021/11/15 04:32:21;;;;;;;;;;;;;;;;;;2117711;27;19924;-49
2021/11/15 04:33:23;;;;;;;;;;;;;;;;;;2115298;28;19965;-48
2021/11/15 04:34:24;;;;;;;;;;;;;;;;;;2120264;27;20017;-48
2021/11/15 04:35:25;;;;;;;;;;;;;;;;;;2123703;28;19928;-48
2021/11/15 04:36:26;;;;;;;;;;;;;;;;;;2123816;28;20376;-48
2021/11/15 04:37:26;;;;;;;;;;;;;;;;;;2121654;28;20292;-49
2021/11/15 04:38:27;;;;;;;;;;;;;;;;;;2123879;28;20290;-49
2021/11/15 04:39:28;;;;;;;;;;;;;;;;;;2123422;28;19924;-49
2021/11/15 04:40:29;;;;;;;;;;;;;;;;;;2122786;27;19950;-49
2021/11/15 04:41:30;;;;;;;;;;;;;;;;;;2115340;28;19928;-49
2021/11/15 04:42:31;;;;;;;;;;;;;;;;;;2116028;28;19928;-48
2021/11/15 04:43:31;;;;;;;;;;;;;;;;;;2122595;27;19931;-48
2021/11/15 04:44:32;;;;;;;;;;;;;;;;;;2115215;28;20430;-49
2021/11/15 04:45:33;;;;;;;;;;;;;;;;;;2116140;28;19924;-51
2021/11/15 04:46:34;;;;;;;;;;;;;;;;;;2121295;28;19937;-49
2021/11/15 04:47:35;;;;;;;;;;;;;;;;;;2123801;28;19930;-48
2021/11/15 04:48:35;;;;;;;;;;;;;;;;;;2121726;27;19923;-49
2021/11/15 04:49:36;;;;;;;;;;;;;;;;;;2122269;27;19931;-50
2021/11/15 04:50:37;;;;;;;;;;;;;;;;;;2115190;28;20162;-49
2021/11/15 04:51:38;;;;;;;;;;;;;;;;;;2117163;27;20368;-49
2021/11/15 04:52:39;;;;;;;;;;;;;;;;;;2121053;27;19924;-48
2021/11/15 04:53:39;;;;;;;;;;;;;;;;;;2115179;28;19935;-48
2021/11/15 04:54:40;;;;;;;;;;;;;;;;;;2119155;27;19976;-51
2021/11/15 04:55:41;;;;;;;;;;;;;;;;;;2122107;28;19931;-49
2021/11/15 04:56:42;;;;;;;;;;;;;;;;;;2123650;28;19957;-49
2021/11/15 04:57:42;;;;;;;;;;;;;;;;;;2122097;27;20322;-47
2021/11/15 04:58:44;;;;;;;;;;;;;;;;;;2124649;27;19949;-51
2021/11/15 04:59:44;;;;;;;;;;;;;;;;;;2123670;28;19958;-48
2021/11/15 05:00:46;;;;;;;;;;;;;;;;;;2120254;28;20011;-50
2021/11/15 05:01:46;;;;;;;;;;;;;;;;;;2123354;28;19924;-48
2021/11/15 05:02:48;;;;;;;;;;;;;;;;;;2122148;28;19924;-48
2021/11/15 05:03:48;;;;;;;;;;;;;;;;;;2121666;27;19975;-50
2021/11/15 05:04:49;;;;;;;;;;;;;;;;;;2122459;28;20337;-49
2021/11/15 05:05:50;;;;;;;;;;;;;;;;;;2123616;28;19927;-50
2021/11/15 05:06:51;;;;;;;;;;;;;;;;;;2118713;28;19931;-50
2021/11/15 05:07:53;;;;;;;;;;;;;;;;;;2123454;28;19928;-49
2021/11/15 05:08:54;;;;;;;;;;;;;;;;;;2123570;28;20052;-48
2021/11/15 05:09:55;;;;;;;;;;;;;;;;;;2124484;27;19923;-49
2021/11/15 05:10:56;;;;;;;;;;;;;;;;;;2123731;28;19924;-48
2021/11/15 05:11:56;;;;;;;;;;;;;;;;;;2123685;28;19923;-48
2021/11/15 05:12:57;;;;;;;;;;;;;;;;;;2123650;27;20329;-48
2021/11/15 05:13:58;;;;;;;;;;;;;;;;;;2115022;28;19928;-48
2021/11/15 05:14:59;;;;;;;;;;;;;;;;;;2120679;28;19930;-47
2021/11/15 05:16:00;;;;;;;;;;;;;;;;;;2121314;27;19923;-49
2021/11/15 05:17:01;;;;;;;;;;;;;;;;;;2123395;28;19924;-51
2021/11/15 05:18:01;;;;;;;;;;;;;;;;;;2123062;28;19923;-49
2021/11/15 05:19:02;;;;;;;;;;;;;;;;;;2122791;27;19923;-49
2021/11/15 05:20:03;;;;;;;;;;;;;;;;;;2123642;28;19994;-49
2021/11/15 05:21:04;;;;;;;;;;;;;;;;;;2123208;28;19924;-48
2021/11/15 05:22:05;;;;;;;;;;;;;;;;;;2124595;27;19929;-48
2021/11/15 05:23:06;;;;;;;;;;;;;;;;;;2123431;28;19927;-49
2021/11/15 05:24:06;;;;;;;;;;;;;;;;;;2121076;28;19924;-48
2021/11/15 05:25:07;;;;;;;;;;;;;;;;;;2126754;27;19948;-50
2021/11/15 05:26:08;;;;;;;;;;;;;;;;;;2132158;27;19923;-48
2021/11/15 05:27:09;;;;;;;;;;;;;;;;;;2127688;27;19966;-48
2021/11/15 05:28:10;;;;;;;;;;;;;;;;;;2125975;27;20401;-49
2021/11/15 05:29:10;;;;;;;;;;;;;;;;;;2131981;27;19972;-48
2021/11/15 05:30:11;;;;;;;;;;;;;;;;;;2127116;27;19927;-48
2021/11/15 05:31:12;;;;;;;;;;;;;;;;;;2121948;28;19923;-49
2021/11/15 05:32:13;;;;;;;;;;;;;;;;;;2122285;27;20379;-48
2021/11/15 05:33:14;;;;;;;;;;;;;;;;;;2122578;27;19923;-50
2021/11/15 05:34:14;;;;;;;;;;;;;;;;;;2119880;27;19924;-50
2021/11/15 05:35:15;;;;;;;;;;;;;;;;;;2114951;28;19923;-48
2021/11/15 05:36:16;;;;;;;;;;;;;;;;;;2115891;28;19972;-49
2021/11/15 05:37:17;;;;;;;;;;;;;;;;;;2117047;28;19924;-47
2021/11/15 05:38:18;;;;;;;;;;;;;;;;;;2114891;28;19931;-48
2021/11/15 05:39:19;;;;;;;;;;;;;;;;;;2120292;27;19924;-48
2021/11/15 05:40:19;;;;;;;;;;;;;;;;;;2117361;27;19928;-48
2021/11/15 05:41:22;;;;;;;;;;;;;;;;;;2115019;28;19966;-49
2021/11/15 05:42:23;;;;;;;;;;;;;;;;;;2119817;27;20353;-50
2021/11/15 05:43:23;;;;;;;;;;;;;;;;;;2123292;28;19976;-49
2021/11/15 05:44:24;;;;;;;;;;;;;;;;;;2123350;28;19923;-49
2021/11/15 05:45:25;;;;;;;;;;;;;;;;;;2124624;27;19941;-49
2021/11/15 05:46:26;;;;;;;;;;;;;;;;;;2115259;28;19924;-48
2021/11/15 05:47:27;;;;;;;;;;;;;;;;;;2115002;28;19980;-44
2021/11/15 05:48:27;;;;;;;;;;;;;;;;;;2119758;27;19954;-43
2021/11/15 05:49:28;;;;;;;;;;;;;;;;;;2132032;27;19967;-44
2021/11/15 05:50:29;;;;;;;;;;;;;;;;;;2131889;27;20368;-43
2021/11/15 05:51:30;;;;;;;;;;;;;;;;;;2121724;27;19935;-43
2021/11/15 05:52:31;;;;;;;;;;;;;;;;;;2123137;28;19976;-44
2021/11/15 05:53:32;;;;;;;;;;;;;;;;;;2123406;28;19930;-43
2021/11/15 05:54:32;;;;;;;;;;;;;;;;;;2119167;28;20320;-43
2021/11/15 05:55:33;;;;;;;;;;;;;;;;;;2114825;28;19924;-43
2021/11/15 05:56:34;;;;;;;;;;;;;;;;;;2114825;28;20376;-43
2021/11/15 05:57:35;;;;;;;;;;;;;;;;;;2123357;27;19992;-44
2021/11/15 05:58:36;;;;;;;;;;;;;;;;;;2123336;28;19923;-43
2021/11/15 05:59:37;;;;;;;;;;;;;;;;;;2122911;28;20360;-43
2021/11/15 06:00:38;;;;;;;;;;;;;;;;;;2125097;27;20009;-43
2021/11/15 06:01:39;;;;;;;;;;;;;;;;;;2131984;27;19976;-43
2021/11/15 06:02:40;;;;;;;;;;;;;;;;;;2129028;27;19927;-43
2021/11/15 06:03:41;;;;;;;;;;;;;;;;;;2118357;28;19946;-42
2021/11/15 06:04:42;;;;;;;;;;;;;;;;;;2123333;28;20280;-43
2021/11/15 06:05:43;;;;;;;;;;;;;;;;;;2120312;28;20293;-43
2021/11/15 06:06:44;;;;;;;;;;;;;;;;;;2125879;27;20367;-43
2021/11/15 06:07:45;;;;;;;;;;;;;;;;;;2131777;27;20005;-44
2021/11/15 06:08:46;;;;;;;;;;;;;;;;;;2127220;27;20382;-43
2021/11/15 06:09:47;;;;;;;;;;;;;;;;;;2121990;27;19923;-43
2021/11/15 06:10:48;;;;;;;;;;;;;;;;;;2123107;28;19930;-43
2021/11/15 06:11:49;;;;;;;;;;;;;;;;;;2121066;28;19923;-43
2021/11/15 06:12:50;;;;;;;;;;;;;;;;;;2117566;28;19928;-43
2021/11/15 06:13:51;;;;;;;;;;;;;;;;;;2114896;28;20372;-44
2021/11/15 06:14:51;;;;;;;;;;;;;;;;;;2118338;27;20279;-43
2021/11/15 06:15:52;;;;;;;;;;;;;;;;;;2121740;28;19927;-43
2021/11/15 06:16:53;;;;;;;;;;;;;;;;;;2123183;28;20059;-43
2021/11/15 06:17:54;;;;;;;;;;;;;;;;;;2123667;27;20319;-43
2021/11/15 06:18:55;;;;;;;;;;;;;;;;;;2116951;27;20027;-43
2021/11/15 06:19:56;;;;;;;;;;;;;;;;;;2114826;28;20265;-43
2021/11/15 06:20:56;;;;;;;;;;;;;;;;;;2118233;28;19930;-43
2021/11/15 06:21:57;;;;;;;;;;;;;;;;;;2131403;27;19976;-44
2021/11/15 06:22:58;;;;;;;;;;;;;;;;;;2131871;27;19950;-43
2021/11/15 06:24:01;;;;;;;;;;;;;;;;;;2122841;27;19930;-43
2021/11/15 06:25:02;;;;;;;;;;;;;;;;;;2114882;28;20014;-43
2021/11/15 06:26:03;;;;;;;;;;;;;;;;;;2114546;28;20288;-43
2021/11/15 06:27:03;;;;;;;;;;;;;;;;;;2119602;27;19930;-43
2021/11/15 06:28:04;;;;;;;;;;;;;;;;;;2123081;28;19935;-43
2021/11/15 06:29:05;;;;;;;;;;;;;;;;;;2123099;28;19976;-44
2021/11/15 06:30:06;;;;;;;;;;;;;;;;;;2120662;27;20368;-44
2021/11/15 06:31:11;;;;;;;;;;;;;;;;;;2123230;28;19924;-44
2021/11/15 06:32:12;;;;;;;;;;;;;;;;;;2122735;28;19923;-44
2021/11/15 06:33:13;;;;;;;;;;;;;;;;;;2122461;27;19923;-42
2021/11/15 06:34:13;;;;;;;;;;;;;;;;;;2114519;28;19924;-42
2021/11/15 06:35:14;;;;;;;;;;;;;;;;;;2115326;28;19923;-42
2021/11/15 06:36:15;;;;;;;;;;;;;;;;;;2118250;28;20277;-42
2021/11/15 06:37:16;;;;;;;;;;;;;;;;;;2114519;28;19924;-42
2021/11/15 06:38:17;;;;;;;;;;;;;;;;;;2115435;28;20045;-42
2021/11/15 06:39:22;;;;;;;;;;;;;;;;;;2125506;27;20013;-42
2021/11/15 06:40:23;;;;;;;;;;;;;;;;;;2131726;27;19923;-42
2021/11/15 06:41:23;;;;;;;;;;;;;;;;;;2127083;27;19930;-42
2021/11/15 06:42:24;;;;;;;;;;;;;;;;;;2120703;27;20017;-43
2021/11/15 06:43:25;;;;;;;;;;;;;;;;;;2115268;28;20014;-42
2021/11/15 06:44:26;;;;;;;;;;;;;;;;;;2118904;27;19923;-42
2021/11/15 06:45:27;;;;;;;;;;;;;;;;;;2120974;27;19923;-42
2021/11/15 06:46:28;;;;;;;;;;;;;;;;;;2115983;28;19966;-42
2021/11/15 06:47:33;;;;;;;;;;;;;;;;;;2116991;28;19928;-43
2021/11/15 06:48:40;;;;;;;;;;;;;;;;;;2117844;28;19975;-43
2021/11/15 06:49:51;;;;;;;;;;;;;;;;;;2116117;28;20364;-42
2021/11/15 06:50:52;;;;;;;;;;;;;;;;;;2123697;27;20010;-42
2021/11/15 06:51:53;;;;;;;;;;;;;;;;;;2133004;27;19923;-42
2021/11/15 06:52:54;;;;;;;;;;;;;;;;;;2132598;27;19976;-42
2021/11/15 06:53:55;;;;;;;;;;;;;;;;;;2123758;27;19963;-42
2021/11/15 06:54:56;;;;;;;;;;;;;;;;;;2124547;28;20388;-42
2021/11/15 06:55:57;;;;;;;;;;;;;;;;;;2124161;28;19929;-42